Time;durP1;ratioP1;P1;durP2;ratioP2;P2;SDS_P1;SDS_P2;PMS_P1;PMS_P2;Temp;Humidity;BMP_temperature;BMP_pressure;BME280_temperature;BME280_humidity;BME280_pressure;Samples;Min_cycle;Max_cycle;Signal;HPM_P1;HPM_P2
2022/03/22 00:00:49;;;;;;;14.87;11.63;;;;;;;;;;5086955;28;20613;-54
2022/03/22 00:03:15;;;;;;;14.60;12.07;;;;;;;;;;5084921;28;20500;-52
2022/03/22 00:05:42;;;;;;;14.50;10.10;;;;;;;;;;5081607;28;20639;-53
2022/03/22 00:08:09;;;;;;;13.67;11.13;;;;;;;;;;5080145;28;20172;-52
2022/03/22 00:10:36;;;;;;;12.13;10.93;;;;;;;;;;5086496;28;20180;-54
2022/03/22 00:13:03;;;;;;;12.80;10.90;;;;;;;;;;5087329;28;20172;-52
2022/03/22 00:15:29;;;;;;;11.43;9.90;;;;;;;;;;5089283;28;20182;-53
2022/03/22 00:17:55;;;;;;;13.30;11.07;;;;;;;;;;5090646;28;20187;-52
2022/03/22 00:20:23;;;;;;;12.53;10.97;;;;;;;;;;5091098;28;20688;-52
2022/03/22 00:22:50;;;;;;;13.13;10.83;;;;;;;;;;5088689;28;20634;-53
2022/03/22 00:25:16;;;;;;;12.90;10.60;;;;;;;;;;5090305;28;20702;-53
2022/03/22 00:27:52;;;;;;;11.57;10.37;;;;;;;;;;5089511;28;20190;-52
2022/03/22 00:30:19;;;;;;;12.37;11.07;;;;;;;;;;5089783;28;20527;-53
2022/03/22 00:32:46;;;;;;;13.20;11.17;;;;;;;;;;5069117;28;20584;-52
2022/03/22 00:35:12;;;;;;;11.87;10.10;;;;;;;;;;5063861;28;20180;-53
2022/03/22 00:37:42;;;;;;;13.70;10.87;;;;;;;;;;5088145;28;20180;-53
2022/03/22 00:40:11;;;;;;;12.87;11.30;;;;;;;;;;5089482;28;20180;-53
2022/03/22 00:42:37;;;;;;;14.03;11.43;;;;;;;;;;5090956;28;20176;-52
2022/03/22 00:45:04;;;;;;;12.27;10.40;;;;;;;;;;5088984;28;20228;-53
2022/03/22 00:47:30;;;;;;;14.13;11.27;;;;;;;;;;5064348;28;20271;-52
2022/03/22 00:49:56;;;;;;;14.17;10.47;;;;;;;;;;5090926;28;20179;-52
2022/03/22 00:52:24;;;;;;;14.57;10.47;;;;;;;;;;5086691;28;20563;-52
2022/03/22 00:54:50;;;;;;;13.20;10.43;;;;;;;;;;5089731;28;20229;-54
2022/03/22 00:57:16;;;;;;;13.30;10.33;;;;;;;;;;5089320;28;20196;-53
2022/03/22 01:02:26;;;;;;;12.57;10.00;;;;;;;;;;5089837;28;20236;-53
2022/03/22 01:04:52;;;;;;;11.63;9.53;;;;;;;;;;5082684;28;20184;-54
2022/03/22 01:07:19;;;;;;;13.20;11.13;;;;;;;;;;5088227;28;20235;-54
2022/03/22 01:09:45;;;;;;;12.20;10.23;;;;;;;;;;5089899;28;20623;-55
2022/03/22 01:12:11;;;;;;;14.77;10.53;;;;;;;;;;5088063;28;20700;-54
2022/03/22 01:14:38;;;;;;;12.70;10.10;;;;;;;;;;5089734;28;20215;-54
2022/03/22 01:17:06;;;;;;;11.13;9.67;;;;;;;;;;5088232;28;20235;-53
2022/03/22 01:19:32;;;;;;;14.17;10.63;;;;;;;;;;5091510;28;20179;-54
2022/03/22 01:21:59;;;;;;;11.87;9.93;;;;;;;;;;5079432;28;20264;-53
2022/03/22 01:24:26;;;;;;;11.93;9.80;;;;;;;;;;5083840;28;20272;-53
2022/03/22 01:26:52;;;;;;;12.93;10.00;;;;;;;;;;5087991;28;20192;-53
2022/03/22 01:29:18;;;;;;;11.13;9.90;;;;;;;;;;5090617;28;20184;-53
2022/03/22 01:31:44;;;;;;;12.23;10.90;;;;;;;;;;5088839;28;20206;-53
2022/03/22 01:34:11;;;;;;;9.90;8.90;;;;;;;;;;5084641;28;20179;-55
2022/03/22 01:36:37;;;;;;;12.40;9.70;;;;;;;;;;5077298;28;20626;-54
2022/03/22 01:39:03;;;;;;;14.23;10.07;;;;;;;;;;5078762;28;20177;-54
2022/03/22 01:41:29;;;;;;;12.13;9.67;;;;;;;;;;5089650;28;20215;-53
2022/03/22 01:43:55;;;;;;;12.27;10.27;;;;;;;;;;5071996;28;20180;-53
2022/03/22 01:46:25;;;;;;;11.33;9.60;;;;;;;;;;5071497;28;20638;-54
2022/03/22 01:48:52;;;;;;;12.47;10.50;;;;;;;;;;5090711;28;20207;-54
2022/03/22 01:51:21;;;;;;;11.20;10.00;;;;;;;;;;5077086;28;20445;-56
2022/03/22 01:53:47;;;;;;;12.70;10.13;;;;;;;;;;5089081;28;20729;-54
2022/03/22 01:56:13;;;;;;;10.03;9.00;;;;;;;;;;5080755;28;20177;-51
2022/03/22 01:58:40;;;;;;;10.73;9.63;;;;;;;;;;5071725;28;20595;-53
2022/03/22 02:06:36;;;;;;;11.93;10.03;;;;;;;;;;5083940;28;20275;-54
2022/03/22 02:09:03;;;;;;;11.87;9.77;;;;;;;;;;5088048;28;20251;-55
2022/03/22 02:11:29;;;;;;;11.07;9.70;;;;;;;;;;5085387;28;20690;-53
2022/03/22 02:13:56;;;;;;;11.20;10.10;;;;;;;;;;5086501;28;20231;-54
2022/03/22 02:16:22;;;;;;;10.97;9.07;;;;;;;;;;5089579;28;20186;-53
2022/03/22 02:18:48;;;;;;;11.73;9.20;;;;;;;;;;5071760;28;20238;-53
2022/03/22 02:21:18;;;;;;;12.63;10.23;;;;;;;;;;5077408;28;20188;-54
2022/03/22 02:23:55;;;;;;;11.00;9.90;;;;;;;;;;5076872;28;20230;-54
2022/03/22 02:26:22;;;;;;;12.83;9.97;;;;;;;;;;5089181;28;20179;-54
2022/03/22 02:28:53;;;;;;;11.47;10.27;;;;;;;;;;5070488;28;20183;-54
2022/03/22 02:31:19;;;;;;;12.57;10.70;;;;;;;;;;5087555;28;20232;-55
2022/03/22 02:33:45;;;;;;;12.00;10.23;;;;;;;;;;5082762;28;20172;-53
2022/03/22 02:36:11;;;;;;;13.37;10.87;;;;;;;;;;5088064;28;20179;-55
2022/03/22 02:38:37;;;;;;;12.17;9.80;;;;;;;;;;5082168;28;20631;-54
2022/03/22 02:41:04;;;;;;;12.10;10.17;;;;;;;;;;5086039;28;20194;-54
2022/03/22 02:43:30;;;;;;;11.97;9.87;;;;;;;;;;5087539;28;20279;-54
2022/03/22 02:45:56;;;;;;;11.07;8.87;;;;;;;;;;5086795;28;20245;-54
2022/03/22 02:48:22;;;;;;;11.30;10.10;;;;;;;;;;5077793;28;20560;-55
2022/03/22 02:50:48;;;;;;;10.77;8.60;;;;;;;;;;5087670;28;20258;-54
2022/03/22 02:53:14;;;;;;;11.93;10.03;;;;;;;;;;5085961;28;20168;-53
2022/03/22 02:55:40;;;;;;;12.10;9.60;;;;;;;;;;5086539;28;20164;-54
2022/03/22 02:58:07;;;;;;;14.57;9.97;;;;;;;;;;5086668;28;20651;-54
2022/03/22 03:00:34;;;;;;;11.57;9.60;;;;;;;;;;5087231;28;20977;-55
2022/03/22 03:03:01;;;;;;;11.33;9.70;;;;;;;;;;5067203;28;20230;-54
2022/03/22 03:05:27;;;;;;;17.33;8.47;;;;;;;;;;5068034;28;20180;-54
2022/03/22 03:07:54;;;;;;;10.00;9.00;;;;;;;;;;5085083;28;20647;-54
2022/03/22 03:10:20;;;;;;;11.30;9.37;;;;;;;;;;5067317;28;20310;-53
2022/03/22 03:12:46;;;;;;;11.13;8.97;;;;;;;;;;5068381;28;20196;-57
2022/03/22 03:15:13;;;;;;;11.30;9.70;;;;;;;;;;5067845;28;20254;-53
2022/03/22 03:17:40;;;;;;;11.20;9.77;;;;;;;;;;5071583;28;20251;-52
2022/03/22 03:20:07;;;;;;;11.17;9.20;;;;;;;;;;5068276;28;20266;-54
2022/03/22 03:22:33;;;;;;;10.40;9.30;;;;;;;;;;5084826;28;20184;-53
2022/03/22 03:25:00;;;;;;;12.17;8.70;;;;;;;;;;5069338;28;20188;-55
2022/03/22 03:27:26;;;;;;;10.60;9.43;;;;;;;;;;5068070;28;20696;-53
2022/03/22 03:29:53;;;;;;;12.40;9.70;;;;;;;;;;5069111;28;20811;-53
2022/03/22 03:32:19;;;;;;;11.40;9.60;;;;;;;;;;5081715;28;20203;-53
2022/03/22 03:34:45;;;;;;;9.53;8.43;;;;;;;;;;5086966;28;20538;-54
2022/03/22 03:37:11;;;;;;;11.00;8.73;;;;;;;;;;5080530;28;20742;-55
2022/03/22 03:39:38;;;;;;;9.40;8.47;;;;;;;;;;5068781;28;20187;-54
2022/03/22 03:42:05;;;;;;;12.00;9.20;;;;;;;;;;5048277;28;20587;-54
2022/03/22 03:47:18;;;;;;;10.03;8.87;;;;;;;;;;5086208;28;20236;-53
2022/03/22 03:49:48;;;;;;;13.10;9.03;;;;;;;;;;5087468;28;20234;-56
2022/03/22 03:52:16;;;;;;;12.33;9.83;;;;;;;;;;5083930;28;20203;-54
2022/03/22 03:54:42;;;;;;;12.57;9.93;;;;;;;;;;5081160;28;20706;-53
2022/03/22 03:57:09;;;;;;;10.30;9.07;;;;;;;;;;5085266;28;20198;-54
2022/03/22 03:59:36;;;;;;;10.87;8.63;;;;;;;;;;5087356;28;20175;-54
2022/03/22 04:02:03;;;;;;;11.47;9.60;;;;;;;;;;5085463;28;20195;-53
2022/03/22 04:04:29;;;;;;;11.40;8.97;;;;;;;;;;5069115;28;20195;-54
2022/03/22 04:06:55;;;;;;;9.73;7.90;;;;;;;;;;5085841;28;20580;-53
2022/03/22 04:09:21;;;;;;;9.73;8.43;;;;;;;;;;5085665;28;20187;-53
2022/03/22 04:11:47;;;;;;;10.10;8.83;;;;;;;;;;5078437;28;20628;-53
2022/03/22 04:14:13;;;;;;;9.13;8.03;;;;;;;;;;5081026;28;20290;-53
2022/03/22 04:16:40;;;;;;;15.07;13.77;;;;;;;;;;5086553;28;20207;-55
2022/03/22 04:19:07;;;;;;;11.83;8.87;;;;;;;;;;5068946;28;20237;-53
2022/03/22 04:21:34;;;;;;;11.33;9.03;;;;;;;;;;5068440;28;20272;-53
2022/03/22 04:24:05;;;;;;;11.43;8.47;;;;;;;;;;5068779;28;20184;-54
2022/03/22 04:26:32;;;;;;;9.80;8.77;;;;;;;;;;5085985;28;20179;-53
2022/03/22 04:34:28;;;;;;;10.37;8.00;;;;;;;;;;5081612;28;20190;-53
2022/03/22 04:36:57;;;;;;;9.97;8.13;;;;;;;;;;5085300;28;20655;-54
2022/03/22 04:39:25;;;;;;;9.60;8.27;;;;;;;;;;5065882;28;20196;-53
2022/03/22 04:41:51;;;;;;;11.80;8.33;;;;;;;;;;5068591;28;20628;-54
2022/03/22 04:44:18;;;;;;;11.77;8.40;;;;;;;;;;5080301;28;20183;-54
2022/03/22 04:46:44;;;;;;;10.17;8.77;;;;;;;;;;5075587;28;20550;-53
2022/03/22 04:49:10;;;;;;;10.23;8.53;;;;;;;;;;5077360;28;20184;-53
2022/03/22 04:57:07;;;;;;;8.90;7.20;;;;;;;;;;5086793;28;20222;-53
2022/03/22 04:59:33;;;;;;;10.10;8.40;;;;;;;;;;5069971;28;20710;-54
2022/03/22 05:01:59;;;;;;;8.83;8.03;;;;;;;;;;5069354;28;20183;-54
2022/03/22 05:04:25;;;;;;;9.63;7.97;;;;;;;;;;5089019;28;20186;-53
2022/03/22 05:06:52;;;;;;;10.07;8.67;;;;;;;;;;5087671;28;20176;-53
2022/03/22 05:09:19;;;;;;;9.47;7.77;;;;;;;;;;5088692;28;20635;-54
2022/03/22 05:11:45;;;;;;;9.00;7.73;;;;;;;;;;5069748;28;20271;-55
2022/03/22 05:14:11;;;;;;;9.83;8.93;;;;;;;;;;5087312;28;20286;-53
2022/03/22 05:16:39;;;;;;;8.73;7.77;;;;;;;;;;5088974;28;20207;-54
2022/03/22 05:19:05;;;;;;;8.63;7.13;;;;;;;;;;5088071;28;20409;-54
2022/03/22 05:21:31;;;;;;;9.00;7.77;;;;;;;;;;5089017;28;20171;-54
2022/03/22 05:23:58;;;;;;;8.97;7.67;;;;;;;;;;5080369;28;20187;-54
2022/03/22 05:26:27;;;;;;;9.00;7.40;;;;;;;;;;5082997;28;20229;-54
2022/03/22 05:28:54;;;;;;;7.50;6.80;;;;;;;;;;5090746;28;21209;-54
2022/03/22 05:31:23;;;;;;;9.47;8.27;;;;;;;;;;5068902;28;20281;-54
2022/03/22 05:33:50;;;;;;;11.47;7.93;;;;;;;;;;5070654;28;20168;-52
2022/03/22 05:36:16;;;;;;;13.90;8.63;;;;;;;;;;5088889;28;20639;-55
2022/03/22 05:38:42;;;;;;;10.70;7.97;;;;;;;;;;5089519;28;20176;-53
2022/03/22 05:41:08;;;;;;;9.60;7.50;;;;;;;;;;5089691;28;20233;-53
2022/03/22 05:43:35;;;;;;;9.90;8.77;;;;;;;;;;5089127;28;20393;-54
2022/03/22 05:46:02;;;;;;;9.20;7.53;;;;;;;;;;5071103;28;20690;-53
2022/03/22 05:48:29;;;;;;;9.80;8.10;;;;;;;;;;5085561;28;20183;-53
2022/03/22 05:50:55;;;;;;;8.60;7.70;;;;;;;;;;5087457;28;21454;-54
2022/03/22 05:53:21;;;;;;;10.30;7.80;;;;;;;;;;5087706;28;20172;-53
2022/03/22 05:55:47;;;;;;;9.07;7.80;;;;;;;;;;5082788;28;20172;-53
2022/03/22 05:58:14;;;;;;;12.40;8.20;;;;;;;;;;5090165;28;20195;-53
2022/03/22 06:00:40;;;;;;;8.97;8.07;;;;;;;;;;5082733;28;20192;-53
2022/03/22 06:03:06;;;;;;;8.70;7.77;;;;;;;;;;5069911;28;20184;-54
2022/03/22 06:05:33;;;;;;;9.23;7.73;;;;;;;;;;5079652;28;20673;-54
2022/03/22 06:07:59;;;;;;;9.17;8.13;;;;;;;;;;5085599;28;20182;-53
2022/03/22 06:10:27;;;;;;;8.13;7.27;;;;;;;;;;5081061;28;20319;-54
2022/03/22 06:12:54;;;;;;;9.30;7.97;;;;;;;;;;5085886;28;20278;-54
2022/03/22 06:15:24;;;;;;;7.97;7.17;;;;;;;;;;5069826;28;20556;-54
2022/03/22 06:17:58;;;;;;;9.03;7.23;;;;;;;;;;5094986;28;20666;-53
2022/03/22 06:20:25;;;;;;;9.33;7.33;;;;;;;;;;5087535;28;20229;-54
2022/03/22 06:22:51;;;;;;;9.20;8.00;;;;;;;;;;5093263;28;20186;-55
2022/03/22 06:25:18;;;;;;;8.73;6.90;;;;;;;;;;5087978;28;20216;-53
2022/03/22 06:27:45;;;;;;;12.43;8.33;;;;;;;;;;5089467;28;20183;-54
2022/03/22 06:30:13;;;;;;;8.23;7.33;;;;;;;;;;5087719;28;20195;-55
2022/03/22 06:32:48;;;;;;;12.47;7.43;;;;;;;;;;5088962;28;20203;-54
2022/03/22 06:35:18;;;;;;;8.67;7.37;;;;;;;;;;5086504;28;20794;-54
2022/03/22 06:37:46;;;;;;;9.07;8.13;;;;;;;;;;5081833;28;20424;-55
2022/03/22 06:40:13;;;;;;;8.40;7.50;;;;;;;;;;5066864;28;20258;-54
2022/03/22 06:42:40;;;;;;;9.03;8.20;;;;;;;;;;5087462;28;20898;-54
2022/03/22 06:45:07;;;;;;;9.07;7.50;;;;;;;;;;5055642;28;20644;-55
2022/03/22 06:47:34;;;;;;;8.97;6.93;;;;;;;;;;5061379;28;20194;-53
2022/03/22 06:50:01;;;;;;;8.47;7.57;;;;;;;;;;5068733;28;20392;-53
2022/03/22 06:52:27;;;;;;;8.30;7.50;;;;;;;;;;5069338;28;20717;-53
2022/03/22 06:54:54;;;;;;;9.57;7.83;;;;;;;;;;5073243;28;20195;-52
2022/03/22 06:57:20;;;;;;;8.47;7.37;;;;;;;;;;5065484;28;20203;-53
2022/03/22 06:59:46;;;;;;;7.47;6.63;;;;;;;;;;5078513;28;20241;-53
2022/03/22 07:02:12;;;;;;;9.20;7.67;;;;;;;;;;5079271;28;20180;-56
2022/03/22 07:04:39;;;;;;;8.13;6.90;;;;;;;;;;5087660;28;20183;-53
2022/03/22 07:07:05;;;;;;;8.70;7.80;;;;;;;;;;5068028;28;20184;-52
2022/03/22 07:09:31;;;;;;;8.47;7.23;;;;;;;;;;5068461;28;20678;-53
2022/03/22 07:11:58;;;;;;;8.40;7.13;;;;;;;;;;5085820;28;20694;-53
2022/03/22 07:14:25;;;;;;;7.60;6.70;;;;;;;;;;5086665;28;20211;-55
2022/03/22 07:16:52;;;;;;;10.97;8.33;;;;;;;;;;5081074;28;20172;-52
2022/03/22 07:19:19;;;;;;;8.47;7.13;;;;;;;;;;5087181;28;20635;-53
2022/03/22 07:21:46;;;;;;;8.83;7.17;;;;;;;;;;5081182;28;20195;-54
2022/03/22 07:24:13;;;;;;;11.60;7.93;;;;;;;;;;5086734;28;20188;-54
2022/03/22 07:26:40;;;;;;;9.30;7.73;;;;;;;;;;5084340;28;20555;-53
2022/03/22 07:29:06;;;;;;;12.90;8.13;;;;;;;;;;5070578;28;20202;-53
2022/03/22 07:31:37;;;;;;;9.10;7.83;;;;;;;;;;5086168;28;20678;-54
2022/03/22 07:34:05;;;;;;;8.43;7.63;;;;;;;;;;5087286;28;20241;-53
2022/03/22 07:36:31;;;;;;;9.33;7.93;;;;;;;;;;5063484;28;20179;-53
2022/03/22 07:38:57;;;;;;;9.23;8.13;;;;;;;;;;5085125;28;20660;-54
2022/03/22 07:41:23;;;;;;;8.93;7.87;;;;;;;;;;5061735;28;20467;-54
2022/03/22 07:43:49;;;;;;;9.57;6.77;;;;;;;;;;5082883;28;20199;-53
2022/03/22 07:46:15;;;;;;;11.47;7.40;;;;;;;;;;5087880;28;20207;-56
2022/03/22 07:48:41;;;;;;;8.57;7.63;;;;;;;;;;5087134;28;20195;-53
2022/03/22 07:53:52;;;;;;;8.83;7.00;;;;;;;;;;5077724;28;20221;-53
2022/03/22 07:56:18;;;;;;;10.40;8.27;;;;;;;;;;5067776;28;20175;-52
2022/03/22 07:58:44;;;;;;;10.63;7.83;;;;;;;;;;5072494;28;20574;-53
2022/03/22 08:01:11;;;;;;;8.07;7.13;;;;;;;;;;5087758;28;20180;-53
2022/03/22 08:03:37;;;;;;;9.37;7.63;;;;;;;;;;5069751;28;20202;-54
2022/03/22 08:06:07;;;;;;;14.60;8.13;;;;;;;;;;5069624;28;20176;-53
2022/03/22 08:08:34;;;;;;;9.90;7.77;;;;;;;;;;5087914;28;20160;-53
2022/03/22 08:11:00;;;;;;;10.27;7.30;;;;;;;;;;5093359;28;20723;-53
2022/03/22 08:13:26;;;;;;;10.90;7.50;;;;;;;;;;5080990;28;20302;-53
2022/03/22 08:15:53;;;;;;;8.23;7.27;;;;;;;;;;5087417;28;20164;-54
2022/03/22 08:18:19;;;;;;;10.90;7.90;;;;;;;;;;5053161;28;20248;-53
2022/03/22 08:20:45;;;;;;;9.57;7.77;;;;;;;;;;5064181;28;20592;-53
2022/03/22 08:23:11;;;;;;;10.10;7.00;;;;;;;;;;5084588;28;20657;-53
2022/03/22 08:25:43;;;;;;;8.77;7.50;;;;;;;;;;5078095;28;20183;-54
2022/03/22 08:28:10;;;;;;;8.93;8.00;;;;;;;;;;5074944;28;20184;-54
2022/03/22 08:30:37;;;;;;;12.43;8.13;;;;;;;;;;5082930;28;20180;-53
2022/03/22 08:33:06;;;;;;;9.27;8.37;;;;;;;;;;5088828;28;20257;-55
2022/03/22 08:35:36;;;;;;;8.80;7.87;;;;;;;;;;5091371;28;20237;-54
2022/03/22 08:38:02;;;;;;;9.07;7.87;;;;;;;;;;5067077;28;20330;-53
2022/03/22 08:40:29;;;;;;;8.60;7.57;;;;;;;;;;5052168;28;20191;-53
2022/03/22 08:42:56;;;;;;;8.07;7.03;;;;;;;;;;5074823;28;20180;-53
2022/03/22 08:45:24;;;;;;;8.73;6.97;;;;;;;;;;5066963;28;20182;-53
2022/03/22 08:47:51;;;;;;;9.87;7.93;;;;;;;;;;5051097;28;20211;-53
2022/03/22 08:50:18;;;;;;;8.60;7.70;;;;;;;;;;5070731;28;20646;-54
2022/03/22 08:52:47;;;;;;;7.93;6.77;;;;;;;;;;5070055;28;20208;-54
2022/03/22 08:55:14;;;;;;;9.13;7.23;;;;;;;;;;5088744;28;20746;-54
2022/03/22 08:57:41;;;;;;;8.03;7.23;;;;;;;;;;5087265;28;20211;-54
2022/03/22 09:00:09;;;;;;;8.53;7.00;;;;;;;;;;5078786;28;20700;-54
2022/03/22 09:02:40;;;;;;;8.67;7.03;;;;;;;;;;5065322;28;20188;-53
2022/03/22 09:07:53;;;;;;;7.63;6.83;;;;;;;;;;5089882;28;20211;-53
2022/03/22 09:10:20;;;;;;;9.00;7.23;;;;;;;;;;5089142;28;20192;-55
2022/03/22 09:12:50;;;;;;;8.60;7.77;;;;;;;;;;5090028;28;20290;-54
2022/03/22 09:15:17;;;;;;;7.93;7.13;;;;;;;;;;5070634;28;20372;-55
2022/03/22 09:17:43;;;;;;;9.40;7.27;;;;;;;;;;5065656;28;20759;-54
2022/03/22 09:20:13;;;;;;;8.47;6.73;;;;;;;;;;5088676;28;20284;-55
2022/03/22 09:22:43;;;;;;;9.73;8.10;;;;;;;;;;5071020;28;20641;-54
2022/03/22 09:25:09;;;;;;;8.40;6.97;;;;;;;;;;5090258;28;20180;-53
2022/03/22 09:27:35;;;;;;;7.87;7.07;;;;;;;;;;5090071;28;20172;-53
2022/03/22 09:30:02;;;;;;;8.53;6.73;;;;;;;;;;5090610;28;20535;-54
2022/03/22 09:32:28;;;;;;;7.67;6.87;;;;;;;;;;5090316;28;20235;-54
2022/03/22 09:34:54;;;;;;;7.90;7.10;;;;;;;;;;5087565;28;20179;-54
2022/03/22 09:37:20;;;;;;;7.77;7.00;;;;;;;;;;5069409;28;20181;-54
2022/03/22 09:39:46;;;;;;;7.37;6.67;;;;;;;;;;5083314;28;20203;-56
2022/03/22 09:42:12;;;;;;;8.63;6.67;;;;;;;;;;5080911;28;20929;-55
2022/03/22 09:44:39;;;;;;;9.03;7.13;;;;;;;;;;5081116;28;20262;-56
2022/03/22 09:47:07;;;;;;;8.77;7.47;;;;;;;;;;5088973;28;20244;-56
2022/03/22 09:49:33;;;;;;;8.00;7.20;;;;;;;;;;5080955;28;20184;-54
2022/03/22 09:52:02;;;;;;;8.50;7.00;;;;;;;;;;5048853;28;20191;-53
2022/03/22 09:54:29;;;;;;;8.23;7.40;;;;;;;;;;5079849;28;20392;-53
2022/03/22 09:56:56;;;;;;;9.33;7.50;;;;;;;;;;5066728;28;20196;-55
2022/03/22 09:59:22;;;;;;;8.43;7.47;;;;;;;;;;5053834;28;20191;-53
2022/03/22 10:01:49;;;;;;;7.67;6.87;;;;;;;;;;5070820;28;20176;-54
2022/03/22 10:04:16;;;;;;;8.17;7.00;;;;;;;;;;5090366;28;20896;-54
2022/03/22 10:07:03;;;;;;;7.83;6.60;;;;;;;;;;5065886;28;20183;-56
2022/03/22 10:09:31;;;;;;;8.60;7.47;;;;;;;;;;5083382;28;20190;-54
2022/03/22 10:11:58;;;;;;;7.53;6.83;;;;;;;;;;5065418;28;20192;-54
2022/03/22 10:14:35;;;;;;;8.53;7.43;;;;;;;;;;5069238;28;20616;-53
2022/03/22 10:17:08;;;;;;;8.13;7.33;;;;;;;;;;5080499;28;20179;-54
2022/03/22 10:19:41;;;;;;;8.50;6.93;;;;;;;;;;5060100;28;20186;-54
2022/03/22 10:22:10;;;;;;;8.67;6.90;;;;;;;;;;5068038;28;20192;-54
2022/03/22 10:24:50;;;;;;;7.60;6.90;;;;;;;;;;5073029;28;20544;-54
2022/03/22 10:27:20;;;;;;;7.63;6.90;;;;;;;;;;5066467;28;20555;-53
2022/03/22 10:29:47;;;;;;;7.83;7.03;;;;;;;;;;5083145;28;20181;-53
2022/03/22 10:32:14;;;;;;;8.53;7.27;;;;;;;;;;5079329;28;20659;-53
2022/03/22 10:34:42;;;;;;;8.20;6.43;;;;;;;;;;5081128;28;20184;-54
2022/03/22 10:37:08;;;;;;;7.70;6.90;;;;;;;;;;5082691;28;20183;-53
2022/03/22 10:39:41;;;;;;;8.33;6.73;;;;;;;;;;5079998;28;20183;-53
2022/03/22 10:42:08;;;;;;;6.93;6.30;;;;;;;;;;5087290;28;20263;-54
2022/03/22 10:44:36;;;;;;;8.93;7.30;;;;;;;;;;5090587;28;20184;-53
2022/03/22 10:47:05;;;;;;;7.57;6.87;;;;;;;;;;5066593;28;20242;-53
2022/03/22 10:49:31;;;;;;;6.73;6.03;;;;;;;;;;5059902;28;20516;-53
2022/03/22 10:51:57;;;;;;;7.20;6.53;;;;;;;;;;5084774;28;20280;-53
2022/03/22 10:54:24;;;;;;;8.17;6.70;;;;;;;;;;5080824;28;20184;-52
2022/03/22 10:56:51;;;;;;;7.30;6.17;;;;;;;;;;5066389;28;20203;-53
2022/03/22 10:59:18;;;;;;;9.97;7.00;;;;;;;;;;5070677;28;20714;-53
2022/03/22 11:01:45;;;;;;;8.00;6.93;;;;;;;;;;5100825;28;20183;-53
2022/03/22 11:04:15;;;;;;;7.13;6.43;;;;;;;;;;5109568;28;20552;-53
2022/03/22 11:06:41;;;;;;;7.70;6.90;;;;;;;;;;5092025;28;20216;-54
2022/03/22 11:09:08;;;;;;;9.13;8.07;;;;;;;;;;5088578;28;20275;-53
2022/03/22 11:11:35;;;;;;;7.97;6.73;;;;;;;;;;5077899;28;20204;-53
2022/03/22 11:14:02;;;;;;;8.70;7.40;;;;;;;;;;5083546;28;20739;-52
2022/03/22 11:16:29;;;;;;;7.60;6.90;;;;;;;;;;5076801;28;20192;-53
2022/03/22 11:19:02;;;;;;;8.13;7.33;;;;;;;;;;5067214;28;20608;-52
2022/03/22 11:21:28;;;;;;;7.23;6.53;;;;;;;;;;5087636;28;20188;-54
2022/03/22 11:24:10;;;;;;;7.93;6.87;;;;;;;;;;5078399;28;20559;-52
2022/03/22 11:26:40;;;;;;;6.53;5.93;;;;;;;;;;5083038;28;20180;-54
2022/03/22 11:29:06;;;;;;;7.83;7.13;;;;;;;;;;5090102;28;20206;-53
2022/03/22 11:31:32;;;;;;;8.70;7.20;;;;;;;;;;5082038;28;20199;-54
2022/03/22 11:34:12;;;;;;;7.97;7.03;;;;;;;;;;5084613;28;20255;-53
2022/03/22 11:36:46;;;;;;;9.53;7.57;;;;;;;;;;5083207;28;20179;-54
2022/03/22 11:39:19;;;;;;;9.50;7.50;;;;;;;;;;5084501;28;20178;-55
2022/03/22 11:44:35;;;;;;;8.67;6.93;;;;;;;;;;5084244;28;21484;-55
2022/03/22 11:47:04;;;;;;;8.30;7.17;;;;;;;;;;5083766;28;20635;-53
2022/03/22 11:49:30;;;;;;;12.13;7.73;;;;;;;;;;5085106;28;20181;-53
2022/03/22 11:52:12;;;;;;;8.40;7.60;;;;;;;;;;5081342;28;20594;-52
2022/03/22 11:54:39;;;;;;;8.50;7.60;;;;;;;;;;5083987;28;20179;-54
2022/03/22 11:57:06;;;;;;;10.50;7.30;;;;;;;;;;5087115;28;20196;-54
2022/03/22 11:59:41;;;;;;;7.97;7.17;;;;;;;;;;5074927;28;20227;-54
2022/03/22 12:02:12;;;;;;;10.33;7.60;;;;;;;;;;5052166;28;20660;-52
2022/03/22 12:04:39;;;;;;;8.63;7.77;;;;;;;;;;5070067;28;20175;-52
2022/03/22 12:07:07;;;;;;;9.30;7.83;;;;;;;;;;5062707;28;20589;-52
2022/03/22 12:09:34;;;;;;;8.37;7.47;;;;;;;;;;5094849;28;20225;-53
2022/03/22 12:12:01;;;;;;;10.60;8.00;;;;;;;;;;5089822;28;20670;-53
2022/03/22 12:14:28;;;;;;;7.60;6.83;;;;;;;;;;5092687;28;20765;-54
2022/03/22 12:16:56;;;;;;;9.97;7.50;;;;;;;;;;5071986;28;20211;-54
2022/03/22 12:19:26;;;;;;;7.40;6.47;;;;;;;;;;5086508;28;20180;-54
2022/03/22 12:21:56;;;;;;;9.00;7.03;;;;;;;;;;5084099;28;20184;-53
2022/03/22 12:24:23;;;;;;;7.43;6.67;;;;;;;;;;5090726;28;20545;-54
2022/03/22 12:26:50;;;;;;;8.50;7.10;;;;;;;;;;5051115;28;20184;-54
2022/03/22 12:29:17;;;;;;;8.93;7.63;;;;;;;;;;5086045;28;20176;-54
2022/03/22 12:31:47;;;;;;;8.85;7.60;;;;;;;;;;5069958;28;20505;-54
2022/03/22 12:34:13;;;;;;;8.00;7.17;;;;;;;;;;5052509;28;20635;-53
2022/03/22 12:36:40;;;;;;;8.57;7.33;;;;;;;;;;5067574;28;20223;-55
2022/03/22 12:39:06;;;;;;;9.90;7.27;;;;;;;;;;5090690;28;20172;-53
2022/03/22 12:41:32;;;;;;;8.60;7.70;;;;;;;;;;5084934;28;20208;-53
2022/03/22 12:43:59;;;;;;;8.43;7.43;;;;;;;;;;5068149;28;20262;-54
2022/03/22 12:46:26;;;;;;;8.90;6.40;;;;;;;;;;5086686;28;20213;-52
2022/03/22 12:48:54;;;;;;;9.33;6.90;;;;;;;;;;5066134;28;20597;-55
2022/03/22 12:51:25;;;;;;;8.70;7.20;;;;;;;;;;5082993;28;20183;-55
2022/03/22 12:53:51;;;;;;;7.77;6.00;;;;;;;;;;5086190;28;20218;-54
2022/03/22 12:56:19;;;;;;;11.13;6.70;;;;;;;;;;5090253;28;20176;-53
2022/03/22 12:58:47;;;;;;;7.73;6.93;;;;;;;;;;5089436;28;20681;-54
2022/03/22 13:01:14;;;;;;;8.87;7.80;;;;;;;;;;5089795;28;20281;-54
2022/03/22 13:03:40;;;;;;;9.27;6.83;;;;;;;;;;5089272;28;20180;-54
2022/03/22 13:06:10;;;;;;;9.47;6.50;;;;;;;;;;5079391;28;20196;-53
2022/03/22 13:11:28;;;;;;;10.00;6.37;;;;;;;;;;5083413;28;20233;-53
2022/03/22 13:16:55;;;;;;;9.13;6.97;;;;;;;;;;5070972;28;20183;-53
2022/03/22 13:19:21;;;;;;;9.13;6.30;;;;;;;;;;5085474;28;20189;-55
2022/03/22 13:21:47;;;;;;;7.50;6.80;;;;;;;;;;5061892;28;20318;-54
2022/03/22 13:24:24;;;;;;;8.17;6.57;;;;;;;;;;5063392;28;20328;-53
2022/03/22 13:27:06;;;;;;;7.57;6.30;;;;;;;;;;5054836;28;20180;-55
2022/03/22 13:29:50;;;;;;;8.27;6.50;;;;;;;;;;5050822;28;20651;-53
2022/03/22 13:32:27;;;;;;;10.73;6.07;;;;;;;;;;5065071;28;20195;-53
2022/03/22 13:34:59;;;;;;;6.60;5.83;;;;;;;;;;5067754;28;20199;-53
2022/03/22 13:37:25;;;;;;;10.07;6.83;;;;;;;;;;5082178;28;20168;-54
2022/03/22 13:39:52;;;;;;;10.37;6.40;;;;;;;;;;5088080;28;20594;-54
2022/03/22 13:42:22;;;;;;;7.30;6.03;;;;;;;;;;5087498;28;20258;-54
2022/03/22 13:44:50;;;;;;;11.93;5.97;;;;;;;;;;5085577;28;20207;-56
2022/03/22 13:47:25;;;;;;;7.23;6.10;;;;;;;;;;5090105;28;20187;-53
2022/03/22 13:49:52;;;;;;;7.93;5.87;;;;;;;;;;5081666;28;20175;-55
2022/03/22 13:52:24;;;;;;;8.27;5.37;;;;;;;;;;5064120;28;20621;-53
2022/03/22 13:54:53;;;;;;;6.70;6.10;;;;;;;;;;5056339;28;20179;-54
2022/03/22 13:57:21;;;;;;;8.07;5.87;;;;;;;;;;5088423;28;20258;-56
2022/03/22 13:59:48;;;;;;;5.93;5.10;;;;;;;;;;5070439;28;20168;-54
2022/03/22 14:02:15;;;;;;;7.10;5.27;;;;;;;;;;5066886;28;20256;-54
2022/03/22 14:04:41;;;;;;;9.20;5.50;;;;;;;;;;5071795;28;20175;-53
2022/03/22 14:07:07;;;;;;;12.50;6.83;;;;;;;;;;5068352;28;20192;-54
2022/03/22 14:09:33;;;;;;;7.33;5.90;;;;;;;;;;5090880;28;20195;-53
2022/03/22 14:12:00;;;;;;;11.43;6.30;;;;;;;;;;5071005;28;20200;-53
2022/03/22 14:14:26;;;;;;;6.70;5.80;;;;;;;;;;5084834;28;20242;-54
2022/03/22 14:16:52;;;;;;;9.27;6.17;;;;;;;;;;5086531;28;20677;-54
2022/03/22 14:19:20;;;;;;;6.33;5.20;;;;;;;;;;5089995;28;20250;-54
2022/03/22 14:21:46;;;;;;;5.40;4.90;;;;;;;;;;5083068;28;20644;-54
2022/03/22 14:24:13;;;;;;;7.33;5.87;;;;;;;;;;5078266;28;20271;-53
2022/03/22 14:26:39;;;;;;;8.57;5.90;;;;;;;;;;5065245;28;20180;-54
2022/03/22 14:29:05;;;;;;;7.30;5.03;;;;;;;;;;5067900;28;20195;-54
2022/03/22 14:31:31;;;;;;;6.47;5.00;;;;;;;;;;5066353;28;20592;-54
2022/03/22 14:33:57;;;;;;;6.80;5.57;;;;;;;;;;5078607;28;20645;-55
2022/03/22 14:36:24;;;;;;;8.23;5.07;;;;;;;;;;5065440;28;20523;-54
2022/03/22 14:38:50;;;;;;;6.97;5.70;;;;;;;;;;5072651;28;20921;-55
2022/03/22 14:41:26;;;;;;;7.23;5.20;;;;;;;;;;5071456;28;20186;-54
2022/03/22 14:43:53;;;;;;;8.10;5.47;;;;;;;;;;5088609;28;20218;-54
2022/03/22 14:46:20;;;;;;;7.60;5.23;;;;;;;;;;5085851;28;20655;-56
2022/03/22 14:48:53;;;;;;;9.83;4.93;;;;;;;;;;5052466;28;20586;-53
2022/03/22 14:54:08;;;;;;;11.63;5.47;;;;;;;;;;5087244;28;20179;-55
2022/03/22 14:59:21;;;;;;;11.07;6.73;;;;;;;;;;5067272;28;20233;-58
2022/03/22 15:01:47;;;;;;;11.13;5.73;;;;;;;;;;5083744;28;20554;-57
2022/03/22 15:04:14;;;;;;;11.17;7.57;;;;;;;;;;5063189;28;20232;-57
2022/03/22 15:06:42;;;;;;;8.63;5.67;;;;;;;;;;5068100;28;20188;-58
2022/03/22 15:09:12;;;;;;;10.47;5.87;;;;;;;;;;5084061;28;20256;-57
2022/03/22 15:11:39;;;;;;;10.80;5.13;;;;;;;;;;5083995;28;20201;-57
2022/03/22 15:14:08;;;;;;;6.70;5.33;;;;;;;;;;5079122;28;20231;-58
2022/03/22 15:16:35;;;;;;;9.30;5.00;;;;;;;;;;5064703;28;20182;-58
2022/03/22 15:19:01;;;;;;;10.17;5.13;;;;;;;;;;5085798;28;20175;-57